createdAt,value
2022-12-31T04:00:40.354Z,96422.44
2022-12-31T04:03:06.838Z,96434.19
2022-12-31T04:05:33.869Z,96434.13
2022-12-31T04:08:00.376Z,96442.00
2022-12-31T04:10:26.825Z,96442.34
2022-12-31T04:12:53.365Z,96444.97
2022-12-31T04:15:21.407Z,96444.19
2022-12-31T04:17:48.604Z,96447.28
2022-12-31T04:20:16.427Z,96458.88
2022-12-31T04:22:44.023Z,96454.84
2022-12-31T04:25:11.410Z,96453.31
2022-12-31T04:27:40.095Z,96469.00
2022-12-31T04:30:07.914Z,96468.13
2022-12-31T04:32:34.450Z,96468.75
2022-12-31T04:35:00.949Z,96470.97
2022-12-31T04:37:27.471Z,96467.88
2022-12-31T04:39:54.021Z,96475.69
2022-12-31T04:42:20.612Z,96475.78
2022-12-31T04:44:47.043Z,96471.28
2022-12-31T04:47:15.269Z,96479.41
2022-12-31T04:49:44.009Z,96483.69
2022-12-31T04:52:10.497Z,96485.66
2022-12-31T04:54:37.095Z,96474.34
2022-12-31T04:57:03.576Z,96496.56
2022-12-31T04:59:30.052Z,96490.94
2022-12-31T05:01:56.697Z,96480.84
2022-12-31T05:04:23.247Z,96486.31
2022-12-31T05:06:49.678Z,96481.59
2022-12-31T05:09:16.146Z,96487.38
2022-12-31T05:11:42.628Z,96496.72
2022-12-31T05:14:09.098Z,96497.06
2022-12-31T05:16:35.672Z,96509.88
2022-12-31T05:19:02.314Z,96512.56
2022-12-31T05:21:28.870Z,96507.25
2022-12-31T05:23:55.303Z,96502.84
2022-12-31T05:26:21.811Z,96503.41
2022-12-31T05:28:48.236Z,96498.06
2022-12-31T05:31:14.787Z,96502.38
2022-12-31T05:33:41.343Z,96503.22
2022-12-31T05:36:08.079Z,96501.38
2022-12-31T05:38:34.588Z,96505.19
2022-12-31T05:41:03.783Z,96494.13
2022-12-31T05:43:31.075Z,96505.22
2022-12-31T05:46:01.056Z,96492.88
2022-12-31T05:48:28.325Z,96492.75
2022-12-31T05:50:54.855Z,96489.69
2022-12-31T05:53:21.333Z,96497.38
2022-12-31T05:55:48.053Z,96512.28
2022-12-31T05:58:15.934Z,96513.06
2022-12-31T06:00:42.541Z,96520.16
2022-12-31T06:03:09.411Z,96516.25
2022-12-31T06:05:39.531Z,96514.69
2022-12-31T06:08:05.970Z,96514.81
2022-12-31T06:10:32.440Z,96528.66
2022-12-31T06:12:58.879Z,96529.09
2022-12-31T06:15:25.335Z,96539.09
2022-12-31T06:17:51.794Z,96536.00
2022-12-31T06:20:18.278Z,96537.75
2022-12-31T06:22:44.770Z,96543.69
2022-12-31T06:25:11.245Z,96550.72
2022-12-31T06:27:37.840Z,96553.47
2022-12-31T06:30:04.731Z,96553.69
2022-12-31T06:32:31.260Z,96558.84
2022-12-31T06:34:57.707Z,96564.00
2022-12-31T06:37:24.168Z,96564.00
2022-12-31T06:39:50.643Z,96562.59
2022-12-31T06:42:17.181Z,96558.94
2022-12-31T06:44:47.043Z,96555.47
2022-12-31T06:47:13.493Z,96547.66
2022-12-31T06:49:40.842Z,96564.66
2022-12-31T06:52:07.327Z,96568.38
2022-12-31T06:54:34.042Z,96561.94
2022-12-31T06:57:00.780Z,96569.69
2022-12-31T06:59:29.285Z,96571.03
2022-12-31T07:02:11.000Z,96569.94
2022-12-31T07:04:58.132Z,96573.69
2022-12-31T07:07:42.909Z,96579.38
2022-12-31T07:10:09.376Z,96567.66
2022-12-31T07:12:48.521Z,96569.25
2022-12-31T07:15:31.226Z,96559.63
2022-12-31T07:18:10.311Z,96580.38
2022-12-31T07:20:37.073Z,96580.47
2022-12-31T07:23:03.762Z,96588.25
2022-12-31T07:25:30.496Z,96583.63
2022-12-31T07:28:09.604Z,96593.75
2022-12-31T07:30:54.751Z,96570.72
2022-12-31T07:33:48.652Z,96581.31
2022-12-31T07:36:31.542Z,96582.09
2022-12-31T07:39:12.892Z,96601.97
2022-12-31T07:42:01.908Z,96596.16
2022-12-31T07:44:43.604Z,96608.47
2022-12-31T07:47:29.700Z,96609.66
2022-12-31T07:49:57.354Z,96614.06
2022-12-31T07:52:24.351Z,96615.03
2022-12-31T07:54:50.821Z,96609.00
2022-12-31T07:57:19.401Z,96619.56
2022-12-31T08:00:00.879Z,96600.22
2022-12-31T08:02:59.900Z,96621.22
2022-12-31T08:05:45.901Z,96606.50
2022-12-31T08:08:24.575Z,96619.91
2022-12-31T08:11:26.337Z,96619.03
2022-12-31T08:13:54.347Z,96629.00
2022-12-31T08:16:21.827Z,96620.75
2022-12-31T08:18:48.660Z,96630.78
2022-12-31T08:21:25.263Z,96629.50
2022-12-31T08:24:35.252Z,96623.00
2022-12-31T08:27:07.103Z,96630.72
2022-12-31T08:29:35.848Z,96623.06
2022-12-31T08:32:26.143Z,96619.00
2022-12-31T08:34:56.468Z,96624.09
2022-12-31T08:37:49.393Z,96624.28
2022-12-31T08:40:26.804Z,96618.91
2022-12-31T08:43:19.870Z,96625.03
2022-12-31T08:45:51.801Z,96634.78
2022-12-31T08:48:45.436Z,96638.56
2022-12-31T08:51:17.636Z,96641.78
2022-12-31T08:53:44.404Z,96645.00
2022-12-31T08:56:24.004Z,96656.44
2022-12-31T08:59:07.892Z,96655.88
2022-12-31T09:01:58.010Z,96651.88
2022-12-31T09:04:36.869Z,96657.56
2022-12-31T09:07:04.291Z,96662.88
2022-12-31T09:09:41.631Z,96670.78
2022-12-31T09:12:22.247Z,96659.94
2022-12-31T09:14:59.198Z,96664.44
2022-12-31T09:17:45.859Z,96658.47
2022-12-31T09:20:43.002Z,96664.28
2022-12-31T09:23:11.132Z,96650.34
2022-12-31T09:25:45.727Z,96658.06
2022-12-31T09:28:39.384Z,96661.63
2022-12-31T09:31:15.595Z,96651.72
2022-12-31T09:34:06.861Z,96652.41
2022-12-31T09:36:48.434Z,96646.72
2022-12-31T09:39:27.142Z,96658.38
2022-12-31T09:42:18.731Z,96648.41
2022-12-31T09:45:07.320Z,96652.78
2022-12-31T09:47:36.687Z,96657.25
2022-12-31T09:50:27.549Z,96654.81
2022-12-31T09:53:24.650Z,96667.41
2022-12-31T09:55:51.302Z,96661.03
2022-12-31T09:58:38.077Z,96667.41
2022-12-31T10:01:07.665Z,96667.69
2022-12-31T10:03:52.010Z,96652.03
2022-12-31T10:06:25.772Z,96654.72
2022-12-31T10:09:17.082Z,96649.84
2022-12-31T10:11:47.250Z,96648.81
2022-12-31T10:14:30.843Z,96643.66
2022-12-31T10:17:32.153Z,96647.34
2022-12-31T10:20:17.373Z,96653.75
2022-12-31T10:22:57.324Z,96638.47
2022-12-31T10:25:39.796Z,96647.00
2022-12-31T10:28:26.978Z,96643.19
2022-12-31T10:31:20.129Z,96643.28
2022-12-31T10:34:08.618Z,96644.94
2022-12-31T10:37:10.625Z,96641.00
2022-12-31T10:39:43.149Z,96634.50
2022-12-31T10:42:29.835Z,96628.44
2022-12-31T10:45:05.596Z,96628.34
2022-12-31T10:47:31.998Z,96635.16
2022-12-31T10:50:14.000Z,96634.06
2022-12-31T10:53:01.453Z,96631.44
2022-12-31T10:55:52.360Z,96631.16
2022-12-31T10:58:36.477Z,96605.44
2022-12-31T11:01:25.004Z,96618.78
2022-12-31T11:04:36.433Z,96620.91
2022-12-31T11:07:21.188Z,96616.03
2022-12-31T11:09:59.588Z,96615.53
2022-12-31T11:12:51.960Z,96603.66
2022-12-31T11:15:29.064Z,96600.81
2022-12-31T11:18:13.846Z,96612.50
2022-12-31T11:21:00.237Z,96605.22
2022-12-31T11:23:41.205Z,96606.34
2022-12-31T11:26:10.658Z,96611.34
2022-12-31T11:29:07.085Z,96603.22
2022-12-31T11:31:50.813Z,96597.97
2022-12-31T11:34:51.941Z,96595.72
2022-12-31T11:37:31.835Z,96606.59
2022-12-31T11:40:32.553Z,96603.94
2022-12-31T11:43:20.008Z,96586.81
2022-12-31T11:46:04.209Z,96598.34
2022-12-31T11:48:38.819Z,96594.59
2022-12-31T11:51:58.295Z,96597.69
2022-12-31T11:54:36.852Z,96596.31
2022-12-31T11:57:29.940Z,96589.97
2022-12-31T11:59:59.554Z,96582.09
2022-12-31T12:02:34.763Z,96586.25
2022-12-31T12:05:10.775Z,96574.44
2022-12-31T12:07:37.971Z,96576.97
2022-12-31T12:10:36.713Z,96576.97
2022-12-31T12:13:29.151Z,96584.22
2022-12-31T12:15:58.782Z,96583.09
2022-12-31T12:18:34.683Z,96573.63
2022-12-31T12:21:08.311Z,96582.72
2022-12-31T12:23:34.848Z,96581.50
2022-12-31T12:26:01.465Z,96585.63
2022-12-31T12:28:31.617Z,96582.16
2022-12-31T12:31:05.326Z,96581.78
2022-12-31T12:33:43.822Z,96580.28
2022-12-31T12:36:15.777Z,96566.97
2022-12-31T12:38:43.596Z,96580.72
2022-12-31T12:41:21.683Z,96583.78
2022-12-31T12:43:48.167Z,96576.59
2022-12-31T12:46:32.793Z,96582.72
2022-12-31T12:49:00.129Z,96572.09
2022-12-31T12:51:51.323Z,96578.66
2022-12-31T12:54:55.794Z,96578.13
2022-12-31T12:57:42.544Z,96579.25
2022-12-31T13:00:29.917Z,96579.97
2022-12-31T13:03:20.877Z,96583.34
2022-12-31T13:06:25.800Z,96575.78
2022-12-31T13:08:55.131Z,96578.44
2022-12-31T13:11:36.806Z,96572.75
2022-12-31T13:14:34.280Z,96573.13
2022-12-31T13:17:32.672Z,96571.63
2022-12-31T13:20:13.991Z,96558.66
2022-12-31T13:22:46.821Z,96548.69
2022-12-31T13:25:39.522Z,96556.16
2022-12-31T13:28:11.412Z,96553.84
2022-12-31T13:30:42.693Z,96556.66
2022-12-31T13:33:23.905Z,96563.25
2022-12-31T13:36:03.518Z,96563.06
2022-12-31T13:38:34.979Z,96558.09
2022-12-31T13:41:17.421Z,96563.41
2022-12-31T13:44:08.522Z,96561.38
2022-12-31T13:47:06.997Z,96555.28
2022-12-31T13:50:14.306Z,96562.31
2022-12-31T13:52:57.888Z,96556.97
2022-12-31T13:55:28.677Z,96553.44
2022-12-31T13:58:09.615Z,96552.16
2022-12-31T14:00:51.291Z,96549.41
2022-12-31T14:03:30.675Z,96559.56
2022-12-31T14:06:07.804Z,96557.91
2022-12-31T14:08:34.307Z,96545.09
2022-12-31T14:11:06.713Z,96554.66
2022-12-31T14:13:57.903Z,96554.88
2022-12-31T14:16:42.870Z,96554.03
2022-12-31T14:19:15.066Z,96562.72
2022-12-31T14:21:47.630Z,96567.13
2022-12-31T14:24:42.780Z,96565.53
2022-12-31T14:27:20.124Z,96563.47
2022-12-31T14:30:06.315Z,96580.97
2022-12-31T14:33:08.622Z,96591.69
2022-12-31T14:35:39.048Z,96597.22
2022-12-31T14:38:18.994Z,96591.28
2022-12-31T14:41:07.292Z,96602.50
2022-12-31T14:43:42.682Z,96594.63
2022-12-31T14:46:43.124Z,96604.44
2022-12-31T14:49:50.882Z,96605.59
2022-12-31T14:52:28.590Z,96606.75
2022-12-31T14:55:08.780Z,96607.56
2022-12-31T14:58:17.234Z,96604.69
2022-12-31T15:00:29.813Z,96601.63
2022-12-31T15:03:00.512Z,96613.66
2022-12-31T15:05:32.673Z,96610.25
2022-12-31T15:08:39.675Z,96617.41
2022-12-31T15:11:10.470Z,96622.19
2022-12-31T15:13:42.723Z,96619.78
2022-12-31T15:16:36.147Z,96611.50
2022-12-31T15:19:08.716Z,96610.22
2022-12-31T15:22:16.382Z,96619.91
2022-12-31T15:24:45.992Z,96629.81
2022-12-31T15:27:38.543Z,96622.00
2022-12-31T15:30:07.002Z,96626.66
2022-12-31T15:32:41.514Z,96628.88
2022-12-31T15:35:20.088Z,96625.59
2022-12-31T15:38:02.515Z,96632.84
2022-12-31T15:40:29.785Z,96628.72
2022-12-31T15:43:04.624Z,96637.41
2022-12-31T15:45:39.110Z,96633.34
2022-12-31T15:48:19.623Z,96630.19
2022-12-31T15:50:46.553Z,96622.81
2022-12-31T15:53:29.845Z,96615.13
2022-12-31T15:55:59.545Z,96621.72
2022-12-31T15:58:29.869Z,96617.13
2022-12-31T16:01:28.394Z,96622.41
2022-12-31T16:03:59.722Z,96622.97
2022-12-31T16:06:30.295Z,96620.19
2022-12-31T16:08:57.537Z,96615.59
2022-12-31T16:11:24.774Z,96624.06
2022-12-31T16:13:55.190Z,96626.13
2022-12-31T16:16:27.961Z,96624.50
2022-12-31T16:18:55.744Z,96631.72
2022-12-31T16:21:34.363Z,96624.78
2022-12-31T16:24:06.357Z,96624.91
2022-12-31T16:26:49.386Z,96626.66
2022-12-31T16:29:18.719Z,96626.53
2022-12-31T16:31:52.678Z,96628.81
2022-12-31T16:34:25.137Z,96635.81
2022-12-31T16:36:58.242Z,96641.63
2022-12-31T16:39:32.093Z,96643.38
2022-12-31T16:42:09.923Z,96648.19
2022-12-31T16:44:36.520Z,96646.53
2022-12-31T16:47:04.081Z,96645.75
2022-12-31T16:49:33.322Z,96646.72
2022-12-31T16:52:04.584Z,96651.53
2022-12-31T16:54:36.991Z,96633.31
2022-12-31T16:57:05.496Z,96645.50
2022-12-31T16:59:45.477Z,96651.06
2022-12-31T17:02:18.529Z,96646.97
2022-12-31T17:04:55.298Z,96643.41
2022-12-31T17:07:25.588Z,96638.75
2022-12-31T17:10:36.142Z,96639.69
2022-12-31T17:13:28.193Z,96622.59
2022-12-31T17:15:57.834Z,96641.63
2022-12-31T17:18:28.834Z,96650.81
2022-12-31T17:21:03.672Z,96640.94
2022-12-31T17:23:34.386Z,96638.81
2022-12-31T17:26:11.271Z,96628.22
2022-12-31T17:28:51.016Z,96643.56
2022-12-31T17:31:37.612Z,96640.66
2022-12-31T17:34:15.378Z,96640.66
2022-12-31T17:36:52.394Z,96638.88
2022-12-31T17:39:21.223Z,96638.34
2022-12-31T17:41:50.200Z,96625.84
2022-12-31T17:44:22.799Z,96632.44
2022-12-31T17:46:52.623Z,96636.03
2022-12-31T17:49:27.288Z,96637.16
2022-12-31T17:51:53.910Z,96620.16
2022-12-31T17:54:20.437Z,96632.53
2022-12-31T17:56:47.337Z,96637.50
2022-12-31T17:59:25.626Z,96631.72
2022-12-31T18:01:52.250Z,96633.66
2022-12-31T18:04:20.680Z,96621.78
2022-12-31T18:06:47.126Z,96624.69
2022-12-31T18:09:13.786Z,96635.34
2022-12-31T18:11:41.320Z,96630.53
2022-12-31T18:14:08.201Z,96634.72
2022-12-31T18:16:34.742Z,96642.13
2022-12-31T18:19:01.342Z,96634.25
2022-12-31T18:21:34.384Z,96632.44
2022-12-31T18:26:29.349Z,96637.53
2022-12-31T18:28:58.152Z,96634.31
2022-12-31T18:31:30.016Z,96630.03
2022-12-31T18:33:59.039Z,96647.47
2022-12-31T18:36:27.518Z,96644.75
2022-12-31T18:38:54.120Z,96651.38
2022-12-31T18:41:24.355Z,96639.22
2022-12-31T18:43:51.075Z,96658.16
2022-12-31T18:46:20.364Z,96661.59
2022-12-31T18:48:47.246Z,96658.66
2022-12-31T18:51:19.728Z,96647.66
2022-12-31T18:53:46.470Z,96641.53
2022-12-31T18:56:15.945Z,96647.03
2022-12-31T18:58:42.929Z,96643.47
2022-12-31T19:01:26.153Z,96640.16
2022-12-31T19:03:54.429Z,96645.63
2022-12-31T19:06:20.888Z,96638.72
2022-12-31T19:08:47.463Z,96639.63
2022-12-31T19:11:15.098Z,96644.00
2022-12-31T19:13:41.706Z,96631.56
2022-12-31T19:16:09.616Z,96645.31
2022-12-31T19:18:36.189Z,96642.41
2022-12-31T19:21:04.900Z,96633.50
2022-12-31T19:23:31.394Z,96631.91
2022-12-31T19:25:57.940Z,96643.75
2022-12-31T19:28:26.325Z,96646.22
2022-12-31T19:30:52.838Z,96630.00
2022-12-31T19:33:19.406Z,96642.06
2022-12-31T19:35:46.983Z,96634.69
2022-12-31T19:38:22.601Z,96637.78
2022-12-31T19:40:50.400Z,96631.28
2022-12-31T19:43:19.329Z,96634.25
2022-12-31T19:45:46.235Z,96636.44
2022-12-31T19:48:15.457Z,96629.66
2022-12-31T19:50:44.025Z,96627.13
2022-12-31T19:53:13.408Z,96612.91
2022-12-31T19:55:40.320Z,96618.69
2022-12-31T19:58:07.591Z,96615.28
2022-12-31T20:00:34.518Z,96618.34
2022-12-31T20:03:01.448Z,96603.44
2022-12-31T20:05:28.140Z,96614.47
2022-12-31T20:07:54.657Z,96613.28
2022-12-31T20:10:21.226Z,96605.75
2022-12-31T20:12:47.662Z,96609.78
2022-12-31T20:15:14.099Z,96622.41
2022-12-31T20:17:40.590Z,96614.25
2022-12-31T20:20:07.583Z,96625.97
2022-12-31T20:22:34.242Z,96632.16
2022-12-31T20:25:00.802Z,96629.50
2022-12-31T20:27:27.689Z,96625.69
2022-12-31T20:29:54.127Z,96612.25
2022-12-31T20:32:21.082Z,96614.72
2022-12-31T20:34:47.804Z,96626.63
2022-12-31T20:37:14.743Z,96628.75
2022-12-31T20:39:42.641Z,96626.91
2022-12-31T20:42:09.586Z,96625.41
2022-12-31T20:44:36.428Z,96622.63
2022-12-31T20:47:03.333Z,96622.41
2022-12-31T20:49:52.507Z,96610.63
2022-12-31T20:52:16.871Z,96613.22
2022-12-31T20:54:43.893Z,96614.88
2022-12-31T20:57:10.369Z,96614.75
2022-12-31T20:59:36.831Z,96625.66
2022-12-31T21:04:50.230Z,96640.59
2022-12-31T21:07:16.817Z,96626.88
2022-12-31T21:09:43.710Z,96634.25
2022-12-31T21:12:31.945Z,96653.00
2022-12-31T21:14:58.495Z,96649.94
2022-12-31T21:17:24.955Z,96637.81
2022-12-31T21:19:51.445Z,96672.13
2022-12-31T21:22:17.875Z,96700.19
2022-12-31T21:24:44.282Z,96708.03
2022-12-31T21:27:10.803Z,96688.47
2022-12-31T21:29:55.641Z,96724.53
2022-12-31T21:32:24.003Z,96722.88
2022-12-31T21:35:14.420Z,96730.59
2022-12-31T21:37:58.657Z,96727.38
2022-12-31T21:40:23.270Z,96727.44
2022-12-31T21:42:50.280Z,96723.91
2022-12-31T21:45:16.803Z,96725.66
2022-12-31T21:48:02.014Z,96731.13
2022-12-31T21:50:28.464Z,96736.22
2022-12-31T21:52:54.958Z,96728.84
2022-12-31T21:55:40.052Z,96733.94
2022-12-31T22:01:11.748Z,96720.69
2022-12-31T22:03:38.520Z,96734.28
2022-12-31T22:06:13.650Z,96734.00
2022-12-31T22:08:41.623Z,96731.19
2022-12-31T22:11:08.932Z,96734.91
2022-12-31T22:13:36.681Z,96722.09
2022-12-31T22:16:05.774Z,96713.19
2022-12-31T22:18:35.542Z,96706.22
2022-12-31T22:21:17.466Z,96700.50
2022-12-31T22:23:46.338Z,96707.28
2022-12-31T22:26:14.827Z,96699.91
2022-12-31T22:28:42.531Z,96697.09
